»·PEaware :: ASA572 KSLC-KBOI

ASA572 :: KSLC-KBOI

FLIGHT INFORMATION

Flight Status: Arrived
Operator:
Alaska Airlines
More flights by this operator :: More flights under this callsign
Pilot: Anonymous 8799 (8799)
Aircraft: BOEING 737-800
(B738)
More flights by this aircraft type
Origin: KSLC Salt Lake City Intl
United States
Destination: KBOI Boise Air Terminal/Gowen
United States
More flights between these airports :: More routes between these airports
Route: TWF4 TWF BROPH SPUUD3
File this flight plan on PilotEdge
Remarks:
Altitude:
(Current/Filed)
32,000ft
Speed:
(Current/Filed)
450kts
Departed: 26-Mar-18 04:51 PM
Arrived: 26-Mar-18 05:37 PM
Distance/Time
Traveled:
252nm/0:46
Distance/Time
To Go:
Arrived

Flight Plot

Page will automatically refresh every two minutes.

Flight plan parsing failed; only flown route is shown


Map Options




Map Legend


Flown Route
Filed Route
Departure Airport
Arrival Airport
Navaid (VOR, NDB)
Fix

Horizontal Profiles

Position Reports

Time Latitude Longitude Heading Altitude Ground
Speed
26-Mar-18 16:25 40.788165 -111.979150 85 4235ft 0kts
26-Mar-18 16:26 40.788165 -111.979150 85 4235ft 0kts
26-Mar-18 16:27 40.788165 -111.979150 85 4235ft 0kts
26-Mar-18 16:28 40.788165 -111.979150 85 4235ft 0kts
26-Mar-18 16:29 40.788165 -111.979150 85 4235ft 0kts
26-Mar-18 16:30 40.788165 -111.979150 85 4235ft 0kts
26-Mar-18 16:31 40.788165 -111.979150 85 4235ft 0kts
26-Mar-18 16:32 40.788165 -111.979150 85 4235ft 0kts
26-Mar-18 16:33 40.788165 -111.979150 85 4235ft 0kts
26-Mar-18 16:34 40.788165 -111.979150 85 4235ft 0kts
26-Mar-18 16:35 40.788165 -111.979150 85 4235ft 0kts
26-Mar-18 16:36 40.788165 -111.979150 85 4235ft 0kts
26-Mar-18 16:37 40.788165 -111.979150 85 4235ft 0kts
26-Mar-18 16:38 40.788134 -111.979648 85 4235ft 2kts
26-Mar-18 16:39 40.787926 -111.980150 14 4235ft 1kts
26-Mar-18 16:40 40.787898 -111.980160 16 4235ft 0kts
26-Mar-18 16:41 40.788092 -111.980084 16 4235ft 6kts
26-Mar-18 16:42 40.789599 -111.979553 64 4235ft 9kts
26-Mar-18 16:43 40.789688 -111.978467 83 4235ft 0kts
26-Mar-18 16:44 40.789704 -111.978281 84 4235ft 8kts
26-Mar-18 16:45 40.785993 -111.976625 176 4235ft 20kts
26-Mar-18 16:46 40.779763 -111.975856 166 4235ft 26kts
26-Mar-18 16:47 40.774692 -111.974755 144 4235ft 0kts
26-Mar-18 16:48 40.774692 -111.974755 146 4235ft 0kts
26-Mar-18 16:49 40.774569 -111.973831 60 4235ft 14kts
26-Mar-18 16:50 40.778855 -111.973607 355 4235ft 74kts
26-Mar-18 16:51 40.822473 -111.991172 306 6437ft 204kts
26-Mar-18 16:52 40.849921 -112.072898 292 9698ft 264kts
26-Mar-18 16:53 40.878239 -112.165336 292 12031ft 275kts
26-Mar-18 16:54 40.915282 -112.254949 320 15707ft 290kts
26-Mar-18 16:55 40.980083 -112.321671 320 19064ft 305kts
26-Mar-18 16:56 41.034513 -112.383913 319 21598ft 317kts
26-Mar-18 16:57 41.095989 -112.451617 327 22988ft 326kts
26-Mar-18 16:58 41.171292 -112.514115 324 23248ft 335kts
26-Mar-18 16:59 41.245207 -112.588125 323 25981ft 340kts
26-Mar-18 17:00 41.312341 -112.669748 312 28387ft 341kts
26-Mar-18 17:01 41.375831 -112.762533 312 30709ft 338kts
26-Mar-18 17:02 41.438052 -112.855408 311 31989ft 339kts
26-Mar-18 17:03 41.498950 -112.948504 311 32007ft 337kts
26-Mar-18 17:04 41.564436 -113.048931 311 32014ft 383kts
26-Mar-18 17:05 41.637817 -113.161859 311 32011ft 426kts
26-Mar-18 17:06 41.718155 -113.285981 311 32002ft 456kts
26-Mar-18 17:07 41.800816 -113.414235 311 32000ft 457kts
26-Mar-18 17:08 41.883636 -113.543293 311 32000ft 457kts
26-Mar-18 17:09 41.964537 -113.669902 310 32000ft 457kts
26-Mar-18 17:10 42.047561 -113.800394 310 32000ft 457kts
26-Mar-18 17:11 42.127468 -113.926530 310 32000ft 457kts
26-Mar-18 17:12 42.209682 -114.056867 310 32000ft 457kts
26-Mar-18 17:13 42.291508 -114.187160 310 32000ft 457kts
26-Mar-18 17:14 42.373187 -114.317784 310 31999ft 457kts
26-Mar-18 17:15 42.454644 -114.448620 310 30629ft 453kts
26-Mar-18 17:16 42.532383 -114.573086 310 28220ft 422kts
26-Mar-18 17:17 42.600763 -114.682347 310 25930ft 403kts
26-Mar-18 17:18 42.672937 -114.798112 310 23523ft 397kts
26-Mar-18 17:19 42.726554 -114.884258 311 21954ft 374kts
26-Mar-18 17:20 42.798320 -114.987634 313 20786ft 378kts
26-Mar-18 17:21 42.869504 -115.089847 313 19684ft 372kts
26-Mar-18 17:22 42.939782 -115.191241 313 18444ft 367kts
26-Mar-18 17:23 43.008130 -115.290430 313 16887ft 357kts
26-Mar-18 17:24 43.075007 -115.387842 313 15386ft 349kts
26-Mar-18 17:25 43.138374 -115.480460 313 13960ft 342kts
26-Mar-18 17:26 43.200986 -115.572075 313 12542ft 318kts
26-Mar-18 17:27 43.257076 -115.654333 312 11285ft 297kts
26-Mar-18 17:28 43.313561 -115.731024 316 10067ft 282kts
26-Mar-18 17:29 43.369519 -115.802655 316 8886ft 272kts
26-Mar-18 17:30 43.421753 -115.875254 314 7693ft 267kts
26-Mar-18 17:31 43.473161 -115.946119 314 7002ft 256kts
26-Mar-18 17:32 43.502039 -116.033959 291 5610ft 267kts
26-Mar-18 17:33 43.529701 -116.118500 295 4269ft 207kts
26-Mar-18 17:34 43.550019 -116.177854 295 3300ft 148kts
26-Mar-18 17:35 43.564848 -116.221188 295 2879ft 65kts
26-Mar-18 17:36 43.568462 -116.228517 92 2879ft 3kts
26-Mar-18 17:37 43.566956 -116.223812 117 2879ft 22kts
26-Mar-18 17:38 43.566844 -116.219757 38 2879ft 0kts

Navigation Log

Ident Type
Flight plan parsing failed, navigation log unavailable